Dayton, OH (45408)

6:20 PM EST on February 01, 2015 (GMT -0500)
Sinclair Dayton Campus | Change Station
CLOSE
Current Station
Personal Weather Station
Location: Dayton, OH
Elevation: 780 ft
Nearby Weather Stations

Elev 780 ft 39.76 °N, 84.20 °W | Updated 12 seconds ago

Rain
Rain
41.9 °F
Feels Like 42 °F
N
3.0
Wind Variable Wind from SW
Gusts 4.0 mph

Today
High -- | Low -- °F
--% Chance of Precip.
Yesterday
High -- | Low -- °F
Precip. -- in
7:45 AM 5:56 PM
Waxing Gibbous, 96% visible
Pressure 29.60 in
Visibility 4.0 miles
Clouds Overcast 400 ft
Windchill 42 °F
Dew Point 40 °F
Humidity 93%
Rainfall 0.00 in
Snow Depth Not available.
UV 0.0 out of 12
Pollen .10 out of 12
Air Quality Not available.
Flu Activity Not available.
METAR KMGY 012253Z AUTO 16009KT 4SM -RA BR OVC004 04/04 A2958 RMK AO2 RAB17 SLP023 P0004 T00440039

More Conditions Fewer Conditions

Pressure 29.60 in
Visibility 4.0 miles
Clouds Overcast 400 ft
Windchill 42 °F
Dew Point 40 °F
Humidity 93%
Rainfall 0.00 in
Snow Depth Not available.
UV 0.0 out of 12
Pollen .10 out of 12
Air Quality Not available.
Flu Activity Not available.
METAR KMGY 012253Z AUTO 16009KT 4SM -RA BR OVC004 04/04 A2958 RMK AO2 RAB17 SLP023 P0004 T00440039

More Conditions Fewer Conditions

10-Day Weather Forecast

Almanac

Astronomy

Feb. 01, 2015 Rise Set
Actual Time
Civil Twilight
Nautical Twilight
Astronomical Twilight
Moon
Length of Visible Light
Length of Day
Tomorrow will be .
, % of the Moon is Illuminated

Today's Extremes

State Highs State Lows

Community

WunderPhotos

Upload Photos

1,792,604 photos uploaded!

WunderBlogs® & News

Nearby

Air Quality

  Air Quality AQ Index Pollutant
Not available.

Snow Depth

Station Depth Elevation

Earthquake Activity

City Distance Mag. Time & Date
Minimum magnitude displayed is 2.5.

Coastal Water Temperatures

Place Temperature

Nearby Weather Stations